Babson Park, FL

1:30 PM EST on February 07, 2016 (GMT -0500)
Babson Park, FL | | Change Station
CLOSE
Current Station
Personal Weather Station
Location: Babson Park, FL
Elevation: 161 ft
Nearby Weather Stations

Elev 161 ft 27.83 °N, 81.52 °W | Updated 16 seconds ago

Clear
Clear
57.0 °F
Feels Like 57.0 °F
N
15.9
Wind Variable Wind from NW
Gusts 17.5 mph

Today
High -- | Low -- °F
--% Chance of Precip.
Yesterday
High -- | Low -- °F
Precip. -- in
Pressure 30.07 in
Visibility 15.0 miles
Clouds Clear
Dew Point 20 °F
Humidity 23%
Rainfall 0.00 in
Snow Depth Not available.
7:09 AM 6:11 PM
Waning Crescent, 1% visible
METAR KBOW 071747Z 29011G20KT 15SM SKC 12/M01 A3007
Pressure 30.07 in
Visibility 15.0 miles
Clouds Clear
Dew Point 20 °F
Humidity 23%
Rainfall 0.00 in
Snow Depth Not available.
7:09 AM 6:11 PM
Waning Crescent, 1% visible
METAR KBOW 071747Z 29011G20KT 15SM SKC 12/M01 A3007

10-Day Weather Forecast

Almanac

Astronomy

Feb. 07, 2016 Rise Set
Actual Time
Civil Twilight
Nautical Twilight
Astronomical Twilight
Moon
Length of Visible Light
Length of Day
Tomorrow will be .
, % of the Moon is Illuminated

Today's Extremes

State Highs State Lows

Community

WunderPhotos

Upload Photos

1,891,276 photos uploaded!

WunderBlog® & News

Nearby

Air Quality

  Air Quality AQ Index Pollutant
Not available.

Snow Depth

Station Depth Elevation

Earthquake Activity

City Distance Mag. Time & Date
Minimum magnitude displayed is 2.5.

Coastal Water Temperatures

Place Temperature

Stations

Nearby Weather Stations

Station Location Temp. Windchill Dew Point Humidity Wind Precip. Elev Updated Type
                   

Watches & Warnings

There are currently no watches in effect.